Malden, Missouri
Current Conditions -  °F | °C
As of 7:53 AM on Thursday 27 Nov 2014 (Local Time) from KPOF Reporting Station
Overcast Overcast  
Wind Chill: 28°   Ceiling: 3100
Heat Index: 36°   Visibility: 10mi
Dew Point: 28°   Wind: 10mph
Humidity: 73%   Direction: 330°NNW
Pressure: 30.45"   Gusts: NA
Location:  36.56°N, 89.97°W
Report Text: KPOF 271353Z AUTO 33009KT 10SM SCT026 OVC031 02/M02 A3045 RMK AO2 SLP317 T00221022
Loading
Personal Weather Stations






























Interactive Weather Map New forecast layout! Learn more

10-Day Weather Forecast

Advertisements
Track Severe Weather on mobile